createdAt,value
2023-03-13T00:00:20.845Z,8.00
2023-03-13T00:01:54.199Z,8.00
2023-03-13T00:03:29.035Z,8.00
2023-03-13T00:05:02.253Z,8.00
2023-03-13T00:06:38.494Z,8.00
2023-03-13T00:08:13.524Z,8.00
2023-03-13T00:09:46.479Z,8.00
2023-03-13T00:11:19.950Z,8.00
2023-03-13T00:12:53.405Z,8.00
2023-03-13T00:14:26.767Z,8.00
2023-03-13T00:16:05.197Z,8.00
2023-03-13T00:17:38.307Z,8.00
2023-03-13T00:19:11.860Z,8.00
2023-03-13T00:20:44.051Z,8.00
2023-03-13T00:22:17.325Z,8.00
2023-03-13T00:23:52.195Z,8.00
2023-03-13T00:25:25.205Z,8.10
2023-03-13T00:27:02.973Z,8.10
2023-03-13T00:28:38.469Z,8.10
2023-03-13T00:30:13.842Z,8.10
2023-03-13T00:31:47.020Z,8.10
2023-03-13T00:33:19.154Z,8.10
2023-03-13T00:34:53.327Z,8.10
2023-03-13T00:36:29.964Z,8.10
2023-03-13T00:38:02.104Z,8.10
2023-03-13T00:39:36.870Z,8.10
2023-03-13T00:41:13.236Z,8.10
2023-03-13T00:42:46.621Z,8.10
2023-03-13T00:44:20.010Z,8.20
2023-03-13T00:45:54.218Z,8.20
2023-03-13T00:47:27.870Z,8.20
2023-03-13T00:49:01.010Z,8.20
2023-03-13T00:50:33.148Z,8.20
2023-03-13T00:52:07.175Z,8.20
2023-03-13T00:53:41.030Z,8.20
2023-03-13T00:55:15.743Z,8.30
2023-03-13T00:56:48.868Z,8.30
2023-03-13T00:58:22.389Z,8.30
2023-03-13T00:59:55.692Z,8.30
2023-03-13T01:01:31.833Z,8.30
2023-03-13T01:03:04.392Z,8.30
2023-03-13T01:04:38.497Z,8.30
2023-03-13T01:06:16.189Z,8.30
2023-03-13T01:07:49.325Z,8.30
2023-03-13T01:09:22.472Z,8.30
2023-03-13T01:11:01.006Z,8.30
2023-03-13T01:12:34.278Z,8.40
2023-03-13T01:14:10.385Z,8.40
2023-03-13T01:15:42.654Z,8.40
2023-03-13T01:17:15.851Z,8.40
2023-03-13T01:18:52.745Z,8.40
2023-03-13T01:20:25.933Z,8.40
2023-03-13T01:21:59.288Z,8.40
2023-03-13T01:23:32.620Z,8.40
2023-03-13T01:25:07.094Z,8.40
2023-03-13T01:26:42.858Z,8.40
2023-03-13T01:28:15.173Z,8.40
2023-03-13T01:29:48.354Z,8.40
2023-03-13T01:31:23.954Z,8.40
2023-03-13T01:32:57.748Z,8.40
2023-03-13T01:34:30.839Z,8.40
2023-03-13T01:36:04.758Z,8.40
2023-03-13T01:37:37.885Z,8.40
2023-03-13T01:39:11.224Z,8.40
2023-03-13T01:40:46.788Z,8.40
2023-03-13T01:42:21.293Z,8.40
2023-03-13T01:43:56.452Z,8.40
2023-03-13T01:45:57.934Z,8.40
2023-03-13T01:47:33.272Z,8.40
2023-03-13T01:49:20.494Z,8.40
2023-03-13T01:51:06.888Z,8.40
2023-03-13T01:52:40.371Z,8.40
2023-03-13T01:54:26.562Z,8.40
2023-03-13T01:56:03.427Z,8.40
2023-03-13T01:57:43.746Z,8.40
2023-03-13T01:59:23.856Z,8.40
2023-03-13T02:00:58.834Z,8.40
2023-03-13T02:02:32.903Z,8.40
2023-03-13T02:04:07.601Z,8.40
2023-03-13T02:05:43.679Z,8.40
2023-03-13T02:07:23.065Z,8.40
2023-03-13T02:09:00.048Z,8.40
2023-03-13T02:10:37.186Z,8.40
2023-03-13T02:12:15.177Z,8.40
2023-03-13T02:13:52.218Z,8.40
2023-03-13T02:15:29.415Z,8.40
2023-03-13T02:17:05.459Z,8.40
2023-03-13T02:18:38.754Z,8.40
2023-03-13T02:20:16.785Z,8.40
2023-03-13T02:22:00.563Z,8.40
2023-03-13T02:23:41.791Z,8.40
2023-03-13T02:25:25.209Z,8.40
2023-03-13T02:27:05.028Z,8.40
2023-03-13T02:28:40.675Z,8.50
2023-03-13T02:30:18.028Z,8.40
2023-03-13T02:31:52.246Z,8.40
2023-03-13T02:33:31.369Z,8.40
2023-03-13T02:35:11.002Z,8.40
2023-03-13T02:36:46.734Z,8.40
2023-03-13T02:38:25.542Z,8.40
2023-03-13T02:40:04.837Z,8.40
2023-03-13T02:41:38.415Z,8.40
2023-03-13T02:43:17.970Z,8.40
2023-03-13T02:44:52.104Z,8.40
2023-03-13T02:46:25.215Z,8.40
2023-03-13T02:48:00.191Z,8.40
2023-03-13T02:49:33.635Z,8.50
2023-03-13T02:51:19.456Z,8.40
2023-03-13T02:52:57.638Z,8.40
2023-03-13T02:54:38.257Z,8.40
2023-03-13T02:56:15.451Z,8.40
2023-03-13T02:57:49.516Z,8.40
2023-03-13T02:59:23.129Z,8.40
2023-03-13T03:00:57.532Z,8.40
2023-03-13T03:02:30.892Z,8.40
2023-03-13T03:04:05.999Z,8.50
2023-03-13T03:05:39.194Z,8.40
2023-03-13T03:07:12.590Z,8.40
2023-03-13T03:08:46.148Z,8.40
2023-03-13T03:10:19.458Z,8.40
2023-03-13T03:11:52.827Z,8.40
2023-03-13T03:13:27.100Z,8.50
2023-03-13T03:15:01.732Z,8.50
2023-03-13T03:16:35.114Z,8.50
2023-03-13T03:18:11.023Z,8.50
2023-03-13T03:19:44.149Z,8.50
2023-03-13T03:21:17.708Z,8.50
2023-03-13T03:22:50.832Z,8.50
2023-03-13T03:24:23.950Z,8.50
2023-03-13T03:25:57.280Z,8.60
2023-03-13T03:27:31.863Z,8.50
2023-03-13T03:29:05.153Z,8.50
2023-03-13T03:30:39.877Z,8.50
2023-03-13T03:32:13.054Z,8.50
2023-03-13T03:33:47.125Z,8.60
2023-03-13T03:35:22.325Z,8.60
2023-03-13T03:36:55.684Z,8.60
2023-03-13T03:38:29.308Z,8.60
2023-03-13T03:40:02.442Z,8.60
2023-03-13T03:41:38.062Z,8.60
2023-03-13T03:43:12.044Z,8.60
2023-03-13T03:44:44.421Z,8.60
2023-03-13T03:46:20.406Z,8.70
2023-03-13T03:47:53.568Z,8.60
2023-03-13T03:49:26.786Z,8.60
2023-03-13T03:51:00.290Z,8.70
2023-03-13T03:52:33.875Z,8.60
2023-03-13T03:54:07.130Z,8.60
2023-03-13T03:55:41.050Z,8.60
2023-03-13T03:57:13.320Z,8.70
2023-03-13T03:58:49.487Z,8.70
2023-03-13T04:00:59.155Z,8.70
2023-03-13T04:02:34.471Z,8.70
2023-03-13T04:04:08.020Z,8.70
2023-03-13T04:05:42.238Z,8.70
2023-03-13T04:07:15.822Z,8.70
2023-03-13T04:08:50.215Z,8.70
2023-03-13T04:10:26.294Z,8.70
2023-03-13T04:11:59.396Z,8.80
2023-03-13T04:13:32.633Z,8.70
2023-03-13T04:15:06.201Z,8.70
2023-03-13T04:16:39.568Z,8.80
2023-03-13T04:18:14.224Z,8.80
2023-03-13T04:19:47.372Z,8.80
2023-03-13T04:21:20.577Z,8.80
2023-03-13T04:22:58.320Z,8.80
2023-03-13T04:24:31.429Z,8.80
2023-03-13T04:26:05.195Z,8.80
2023-03-13T04:27:38.783Z,8.80
2023-03-13T04:29:12.507Z,8.90
2023-03-13T04:31:18.126Z,8.90
2023-03-13T04:33:18.605Z,8.90
2023-03-13T04:35:10.730Z,8.90
2023-03-13T04:37:08.936Z,8.90
2023-03-13T04:39:06.221Z,8.90
2023-03-13T04:41:03.212Z,8.90
2023-03-13T04:43:11.915Z,8.90
2023-03-13T04:44:55.973Z,9.00
2023-03-13T04:46:51.119Z,9.00
2023-03-13T04:48:57.688Z,9.00
2023-03-13T04:50:49.612Z,9.00
2023-03-13T04:52:36.922Z,9.00
2023-03-13T04:54:45.561Z,9.00
2023-03-13T04:56:43.347Z,9.00
2023-03-13T04:58:35.959Z,9.00
2023-03-13T05:00:41.859Z,9.00
2023-03-13T05:02:21.756Z,9.00
2023-03-13T05:03:54.864Z,9.00
2023-03-13T05:05:45.136Z,9.10
2023-03-13T05:07:36.732Z,9.10
2023-03-13T05:09:36.076Z,9.10
2023-03-13T05:11:25.064Z,9.10
2023-03-13T05:13:22.308Z,9.10
2023-03-13T05:15:30.830Z,9.10
2023-03-13T05:17:22.944Z,9.10
2023-03-13T05:19:28.564Z,9.10
2023-03-13T05:21:29.102Z,9.30
2023-03-13T05:23:31.368Z,9.20
2023-03-13T05:25:12.041Z,9.20
2023-03-13T05:27:08.446Z,9.20
2023-03-13T05:28:56.403Z,9.20
2023-03-13T05:30:42.887Z,9.30
2023-03-13T05:32:30.491Z,9.20
2023-03-13T05:34:20.535Z,9.20
2023-03-13T05:36:03.164Z,9.20
2023-03-13T05:37:53.544Z,9.20
2023-03-13T05:39:53.438Z,9.30
2023-03-13T05:41:45.636Z,9.30
2023-03-13T05:43:38.025Z,9.30
2023-03-13T05:45:25.890Z,9.30
2023-03-13T05:47:09.718Z,9.40
2023-03-13T05:49:05.965Z,9.30
2023-03-13T05:50:51.718Z,9.40
2023-03-13T05:52:47.705Z,9.40
2023-03-13T05:54:37.501Z,9.40
2023-03-13T05:56:16.588Z,9.40
2023-03-13T05:57:57.718Z,9.40
2023-03-13T05:59:51.423Z,9.40
2023-03-13T06:01:50.681Z,9.50
2023-03-13T06:03:38.882Z,9.50
2023-03-13T06:05:12.621Z,9.50
2023-03-13T06:06:47.543Z,9.50
2023-03-13T06:08:21.998Z,9.50
2023-03-13T06:09:57.627Z,9.60
2023-03-13T06:11:30.653Z,9.50
2023-03-13T06:13:18.716Z,9.60
2023-03-13T06:14:53.596Z,9.60
2023-03-13T06:16:30.957Z,9.60
2023-03-13T06:18:17.752Z,9.60
2023-03-13T06:19:50.928Z,9.60
2023-03-13T06:21:24.075Z,9.60
2023-03-13T06:22:57.315Z,9.70
2023-03-13T06:24:30.442Z,9.70
2023-03-13T06:26:05.526Z,9.70
2023-03-13T06:27:38.630Z,9.70
2023-03-13T06:29:12.468Z,9.70
2023-03-13T06:30:45.520Z,9.70
2023-03-13T06:32:18.659Z,9.80
2023-03-13T06:33:54.930Z,9.80
2023-03-13T06:35:28.351Z,9.80
2023-03-13T06:37:01.698Z,9.80
2023-03-13T06:38:35.964Z,9.80
2023-03-13T06:40:11.022Z,9.80
2023-03-13T06:41:45.548Z,9.80
2023-03-13T06:43:18.647Z,9.90
2023-03-13T06:44:51.763Z,9.90
2023-03-13T06:46:26.389Z,9.90
2023-03-13T06:47:59.581Z,9.90
2023-03-13T06:49:33.130Z,10.00
2023-03-13T06:51:10.823Z,10.00
2023-03-13T06:52:44.452Z,10.00
2023-03-13T06:54:17.658Z,10.00
2023-03-13T06:55:50.769Z,10.00
2023-03-13T06:57:25.532Z,10.00
2023-03-13T06:59:00.048Z,10.00
2023-03-13T07:00:34.419Z,10.10
2023-03-13T07:02:07.778Z,10.10
2023-03-13T07:03:42.340Z,10.10
2023-03-13T07:05:15.612Z,10.10
2023-03-13T07:06:48.933Z,10.20
2023-03-13T07:08:22.021Z,10.20
2023-03-13T07:09:55.079Z,10.20
2023-03-13T07:11:28.132Z,10.20
2023-03-13T07:13:02.880Z,10.20
2023-03-13T07:14:36.163Z,10.20
2023-03-13T07:16:12.569Z,10.30
2023-03-13T07:17:45.753Z,10.30
2023-03-13T07:19:19.099Z,10.30
2023-03-13T07:20:56.125Z,10.40
2023-03-13T07:22:29.246Z,10.40
2023-03-13T07:24:02.404Z,10.40
2023-03-13T07:25:35.577Z,10.40
2023-03-13T07:27:08.658Z,10.40
2023-03-13T07:28:44.388Z,10.50
2023-03-13T07:30:18.242Z,10.50
2023-03-13T07:31:51.691Z,10.50
2023-03-13T07:33:24.805Z,10.50
2023-03-13T07:34:57.909Z,10.60
2023-03-13T07:36:31.325Z,10.60
2023-03-13T07:38:04.742Z,10.60
2023-03-13T07:39:37.857Z,10.60
2023-03-13T07:41:14.137Z,10.60
2023-03-13T07:42:47.225Z,10.70
2023-03-13T07:44:21.710Z,10.70
2023-03-13T07:45:56.692Z,10.70
2023-03-13T07:47:29.828Z,10.70
2023-03-13T07:49:02.913Z,10.70
2023-03-13T07:50:36.206Z,10.80
2023-03-13T07:52:09.385Z,10.80
2023-03-13T07:53:42.496Z,10.80
2023-03-13T07:55:15.572Z,10.80
2023-03-13T07:56:48.814Z,10.80
2023-03-13T07:58:22.941Z,10.90
2023-03-13T07:59:57.628Z,10.90
2023-03-13T08:01:31.512Z,10.90
2023-03-13T08:03:06.713Z,11.00
2023-03-13T08:04:39.802Z,11.00
2023-03-13T08:06:16.860Z,11.00
2023-03-13T08:07:50.007Z,11.00
2023-03-13T08:09:23.159Z,11.10
2023-03-13T08:11:02.345Z,11.10
2023-03-13T08:12:35.440Z,11.10
2023-03-13T08:14:09.382Z,11.10
2023-03-13T08:15:43.877Z,11.10
2023-03-13T08:17:16.922Z,11.20
2023-03-13T08:18:53.628Z,11.20
2023-03-13T08:20:26.937Z,11.20
2023-03-13T08:22:00.294Z,11.20
2023-03-13T08:23:33.663Z,11.30
2023-03-13T08:25:07.588Z,11.30
2023-03-13T08:26:42.966Z,11.30
2023-03-13T08:28:16.161Z,11.40
2023-03-13T08:29:49.266Z,11.40
2023-03-13T08:31:26.347Z,11.40
2023-03-13T08:32:59.504Z,11.40
2023-03-13T08:34:35.030Z,11.50
2023-03-13T08:36:14.297Z,11.50
2023-03-13T08:37:47.449Z,11.50
2023-03-13T08:39:22.408Z,11.50
2023-03-13T08:40:58.587Z,11.60
2023-03-13T08:42:31.663Z,11.60
2023-03-13T08:44:06.094Z,11.60
2023-03-13T08:45:39.205Z,11.60
2023-03-13T08:47:13.714Z,11.60
2023-03-13T08:48:50.025Z,11.70
2023-03-13T08:50:23.404Z,11.70
2023-03-13T08:51:56.648Z,11.70
2023-03-13T08:53:30.080Z,11.70
2023-03-13T08:55:03.218Z,11.70
2023-03-13T08:56:37.534Z,11.70
2023-03-13T08:58:10.647Z,11.80
2023-03-13T08:59:43.734Z,11.80
2023-03-13T09:01:17.297Z,11.80
2023-03-13T09:02:51.860Z,11.80
2023-03-13T09:04:25.005Z,11.80
2023-03-13T09:05:58.816Z,11.80
2023-03-13T09:07:31.867Z,11.80
2023-03-13T09:09:06.865Z,11.90
2023-03-13T09:10:40.088Z,11.90
2023-03-13T09:12:28.323Z,11.90
2023-03-13T09:14:03.287Z,11.90
2023-03-13T09:15:36.653Z,11.90
2023-03-13T09:17:10.057Z,11.90
2023-03-13T09:18:45.636Z,11.90
2023-03-13T09:20:19.133Z,11.90
2023-03-13T09:21:52.364Z,11.90
2023-03-13T09:23:26.312Z,11.90
2023-03-13T09:24:59.404Z,11.90
2023-03-13T09:26:32.606Z,11.90
2023-03-13T09:28:06.473Z,11.90
2023-03-13T09:29:41.751Z,11.90
2023-03-13T09:31:17.881Z,11.90
2023-03-13T09:32:51.068Z,11.90
2023-03-13T09:34:25.753Z,11.90
2023-03-13T09:35:58.880Z,11.90
2023-03-13T09:37:32.084Z,11.90
2023-03-13T09:39:05.242Z,11.90
2023-03-13T09:40:53.597Z,11.90
2023-03-13T09:42:47.166Z,11.90
2023-03-13T09:44:26.974Z,11.90
2023-03-13T09:46:07.418Z,11.90
2023-03-13T09:47:47.356Z,11.90
2023-03-13T09:49:33.313Z,11.80
2023-03-13T09:51:16.144Z,11.80
2023-03-13T09:52:56.274Z,11.80
2023-03-13T09:54:35.943Z,11.80
2023-03-13T09:56:18.711Z,11.80
2023-03-13T09:57:56.586Z,11.90
2023-03-13T09:59:43.509Z,11.80
2023-03-13T10:01:25.768Z,11.90
2023-03-13T10:03:07.004Z,11.90
2023-03-13T10:04:48.942Z,11.90
2023-03-13T10:06:24.682Z,11.90
2023-03-13T10:08:03.056Z,11.90
2023-03-13T10:09:37.125Z,11.90
2023-03-13T10:11:20.052Z,12.00
2023-03-13T10:13:11.055Z,12.00
2023-03-13T10:14:55.076Z,12.10
2023-03-13T10:16:34.524Z,12.00
2023-03-13T10:18:19.526Z,12.10
2023-03-13T10:20:01.595Z,12.10
2023-03-13T10:21:37.689Z,12.20
2023-03-13T10:23:19.075Z,12.20
2023-03-13T10:24:59.227Z,12.20
2023-03-13T10:26:36.867Z,12.20
2023-03-13T10:28:13.556Z,12.20
2023-03-13T10:29:46.766Z,12.30
2023-03-13T10:31:30.509Z,12.30
2023-03-13T10:33:23.439Z,12.30
2023-03-13T10:35:00.769Z,12.40
2023-03-13T10:36:43.212Z,12.50
2023-03-13T10:38:24.049Z,12.50
2023-03-13T10:40:14.789Z,12.60
2023-03-13T10:41:50.361Z,12.70
2023-03-13T10:43:23.708Z,12.70
2023-03-13T10:45:01.910Z,12.70
2023-03-13T10:46:41.682Z,12.80
2023-03-13T10:48:20.261Z,12.80
2023-03-13T10:49:59.585Z,12.90
2023-03-13T10:51:40.853Z,13.00
2023-03-13T10:53:37.406Z,13.00
2023-03-13T10:55:14.447Z,13.10
2023-03-13T10:56:47.734Z,13.10
2023-03-13T10:58:28.990Z,13.20
2023-03-13T11:00:10.679Z,13.20
2023-03-13T11:01:45.090Z,13.30
2023-03-13T11:03:22.023Z,13.30
2023-03-13T11:04:55.704Z,13.30
2023-03-13T11:06:42.338Z,13.40
2023-03-13T11:08:25.399Z,13.40
2023-03-13T11:10:11.572Z,13.40
2023-03-13T11:11:46.431Z,13.50
2023-03-13T11:13:37.964Z,13.50
2023-03-13T11:15:17.781Z,13.50
2023-03-13T11:16:54.341Z,13.60
2023-03-13T11:18:35.923Z,13.60
2023-03-13T11:20:24.292Z,13.70
2023-03-13T11:22:20.674Z,13.70
2023-03-13T11:24:02.726Z,13.70
2023-03-13T11:25:44.812Z,13.70
2023-03-13T11:27:30.943Z,13.70
2023-03-13T11:29:12.350Z,13.70
2023-03-13T11:31:10.037Z,13.80
2023-03-13T11:32:45.081Z,13.80
2023-03-13T11:34:27.558Z,13.90
2023-03-13T11:36:07.055Z,13.90
2023-03-13T11:37:46.188Z,13.90
2023-03-13T11:39:49.644Z,14.00
2023-03-13T11:41:58.314Z,14.00
2023-03-13T11:43:56.317Z,14.00
2023-03-13T11:46:02.858Z,14.10
2023-03-13T11:47:57.635Z,14.10
2023-03-13T11:49:56.772Z,14.20
2023-03-13T11:51:49.252Z,14.20
2023-03-13T11:53:59.545Z,14.20
2023-03-13T11:55:48.380Z,14.30
2023-03-13T11:57:30.594Z,14.30
2023-03-13T11:59:25.725Z,14.30
2023-03-13T12:01:04.475Z,14.30
2023-03-13T12:02:42.623Z,14.40
2023-03-13T12:04:23.329Z,14.40
2023-03-13T12:06:02.259Z,14.40
2023-03-13T12:07:40.975Z,14.40
2023-03-13T12:09:28.170Z,14.40
2023-03-13T12:11:14.899Z,14.40
2023-03-13T12:12:54.936Z,14.40
2023-03-13T12:14:34.503Z,14.50
2023-03-13T12:16:15.472Z,14.50
2023-03-13T12:18:11.813Z,14.50
2023-03-13T12:19:54.846Z,14.50
2023-03-13T12:21:34.195Z,14.50
2023-03-13T12:23:31.913Z,14.50
2023-03-13T12:25:15.489Z,14.50
2023-03-13T12:26:54.305Z,14.50
2023-03-13T12:28:38.255Z,14.50
2023-03-13T12:30:27.056Z,14.50
2023-03-13T12:32:09.705Z,14.50
2023-03-13T12:33:52.240Z,14.50
2023-03-13T12:35:29.812Z,14.50
2023-03-13T12:37:13.559Z,14.50
2023-03-13T12:38:58.088Z,14.50
2023-03-13T12:40:41.182Z,14.50
2023-03-13T12:42:34.391Z,14.60
2023-03-13T12:44:15.845Z,14.50
2023-03-13T12:46:18.880Z,14.60
2023-03-13T12:48:24.350Z,14.60
2023-03-13T12:50:36.730Z,14.60
2023-03-13T12:53:01.861Z,14.60
2023-03-13T12:55:00.668Z,14.60
2023-03-13T12:57:06.150Z,14.60
2023-03-13T12:58:47.289Z,14.70
2023-03-13T13:00:24.390Z,14.60
2023-03-13T13:01:59.029Z,14.70
2023-03-13T13:03:38.516Z,14.70
2023-03-13T13:05:21.810Z,14.70
2023-03-13T13:07:02.287Z,14.70
2023-03-13T13:08:43.262Z,14.70
2023-03-13T13:10:22.678Z,14.70
2023-03-13T13:12:01.237Z,14.70
2023-03-13T13:13:41.000Z,14.70
2023-03-13T13:15:21.632Z,14.80
2023-03-13T13:17:03.511Z,14.80
2023-03-13T13:18:36.668Z,14.80
2023-03-13T13:20:49.636Z,14.80
2023-03-13T13:22:52.739Z,14.80
2023-03-13T13:24:50.262Z,14.90
2023-03-13T13:26:40.022Z,14.90
2023-03-13T13:28:30.517Z,14.90
2023-03-13T13:30:06.810Z,14.90
2023-03-13T13:31:59.572Z,14.90
2023-03-13T13:33:40.549Z,14.90
2023-03-13T13:35:36.538Z,14.90
2023-03-13T13:37:29.052Z,15.00
2023-03-13T13:39:03.402Z,15.00
2023-03-13T13:40:36.678Z,15.00
2023-03-13T13:42:48.719Z,15.00
2023-03-13T13:44:27.625Z,15.00
2023-03-13T13:46:14.450Z,15.00
2023-03-13T13:47:50.708Z,15.00
2023-03-13T13:49:29.822Z,15.00
2023-03-13T13:51:26.664Z,15.00
2023-03-13T13:53:31.775Z,15.00
2023-03-13T13:55:32.563Z,15.00
2023-03-13T13:57:13.922Z,15.00
2023-03-13T13:58:48.198Z,15.10
2023-03-13T14:00:27.514Z,15.00
2023-03-13T14:02:24.390Z,15.00
2023-03-13T14:04:14.547Z,15.00
2023-03-13T14:05:52.324Z,15.00
2023-03-13T14:07:36.173Z,15.00
2023-03-13T14:09:28.984Z,15.00
2023-03-13T14:11:22.449Z,15.00
2023-03-13T14:12:57.355Z,15.00
2023-03-13T14:14:30.509Z,15.00
2023-03-13T14:16:25.006Z,15.00
2023-03-13T14:18:01.252Z,15.00
2023-03-13T14:19:42.220Z,15.00
2023-03-13T14:21:15.383Z,14.90
2023-03-13T14:22:51.079Z,14.90
2023-03-13T14:24:24.159Z,14.90
2023-03-13T14:25:57.429Z,14.90
2023-03-13T14:27:30.613Z,14.90
2023-03-13T14:29:07.845Z,14.90
2023-03-13T14:30:44.643Z,14.80
2023-03-13T14:32:19.390Z,14.80
2023-03-13T14:33:52.512Z,14.80
2023-03-13T14:35:25.796Z,14.80
2023-03-13T14:37:16.801Z,14.70
2023-03-13T14:38:57.058Z,14.70
2023-03-13T14:40:34.063Z,14.70
2023-03-13T14:42:12.466Z,14.60
2023-03-13T14:43:46.723Z,14.60
2023-03-13T14:45:28.306Z,14.60
2023-03-13T14:47:06.914Z,14.50
2023-03-13T14:48:41.899Z,14.50
2023-03-13T14:50:16.270Z,14.50
2023-03-13T14:52:00.645Z,14.50
2023-03-13T14:53:34.665Z,14.40
2023-03-13T14:55:28.253Z,14.50
2023-03-13T14:57:21.403Z,14.40
2023-03-13T14:58:54.875Z,14.40
2023-03-13T15:00:37.895Z,14.40
2023-03-13T15:02:29.826Z,14.30
2023-03-13T15:04:04.627Z,14.30
2023-03-13T15:05:36.780Z,14.30
2023-03-13T15:07:10.382Z,14.30
2023-03-13T15:08:46.880Z,14.30
2023-03-13T15:10:23.554Z,14.30
2023-03-13T15:12:02.440Z,14.30
2023-03-13T15:13:37.770Z,14.20
2023-03-13T15:15:12.459Z,14.20
2023-03-13T15:16:45.561Z,14.20
2023-03-13T15:18:22.350Z,14.20
2023-03-13T15:19:59.585Z,14.20
2023-03-13T15:21:35.887Z,14.20
2023-03-13T15:23:15.095Z,14.20
2023-03-13T15:25:03.318Z,14.20
2023-03-13T15:26:38.838Z,14.10
2023-03-13T15:28:17.896Z,14.10
2023-03-13T15:29:51.058Z,14.10
2023-03-13T15:31:29.320Z,14.20
2023-03-13T15:33:02.582Z,14.10
2023-03-13T15:34:35.840Z,14.10
2023-03-13T15:36:11.682Z,14.10
2023-03-13T15:37:44.816Z,14.10
2023-03-13T15:39:20.681Z,14.10
2023-03-13T15:40:54.696Z,14.10
2023-03-13T15:42:27.959Z,14.10
2023-03-13T15:44:01.614Z,14.10
2023-03-13T15:45:36.706Z,14.00
2023-03-13T15:47:13.212Z,14.10
2023-03-13T15:48:46.308Z,14.10
2023-03-13T15:50:25.452Z,14.10
2023-03-13T15:51:59.892Z,14.10
2023-03-13T15:53:36.159Z,14.10
2023-03-13T15:55:12.196Z,14.10
2023-03-13T15:56:45.412Z,14.10
2023-03-13T15:58:24.236Z,14.10
2023-03-13T16:00:05.336Z,14.10
2023-03-13T16:01:39.229Z,14.10
2023-03-13T16:03:20.439Z,14.10
2023-03-13T16:05:04.926Z,14.10
2023-03-13T16:06:41.403Z,14.10
2023-03-13T16:08:34.628Z,14.10
2023-03-13T16:10:22.045Z,14.10
2023-03-13T16:12:04.756Z,14.10
2023-03-13T16:13:47.586Z,14.10
2023-03-13T16:15:31.432Z,14.20
2023-03-13T16:17:28.728Z,14.10
2023-03-13T16:19:04.170Z,14.10
2023-03-13T16:20:37.385Z,14.10
2023-03-13T16:22:10.732Z,14.10
2023-03-13T16:23:45.501Z,14.20
2023-03-13T16:25:19.046Z,14.10
2023-03-13T16:26:52.135Z,14.20
2023-03-13T16:28:25.239Z,14.20
2023-03-13T16:29:58.405Z,14.20
2023-03-13T16:31:33.800Z,14.20
2023-03-13T16:33:09.288Z,14.20
2023-03-13T16:34:53.058Z,14.20
2023-03-13T16:36:31.032Z,14.20
2023-03-13T16:38:04.541Z,14.20
2023-03-13T16:39:39.061Z,14.20
2023-03-13T16:41:17.554Z,14.20
2023-03-13T16:42:50.987Z,14.20
2023-03-13T16:44:26.414Z,14.20
2023-03-13T16:46:00.545Z,14.20
2023-03-13T16:47:35.466Z,14.20
2023-03-13T16:49:15.389Z,14.10
2023-03-13T16:50:48.439Z,14.20
2023-03-13T16:52:21.992Z,14.10
2023-03-13T16:53:59.581Z,14.10
2023-03-13T16:55:36.591Z,14.20
2023-03-13T16:57:12.811Z,14.10
2023-03-13T16:58:47.066Z,14.10
2023-03-13T17:00:23.898Z,14.10
2023-03-13T17:01:57.103Z,14.10
2023-03-13T17:03:30.188Z,14.10
2023-03-13T17:05:03.333Z,14.10
2023-03-13T17:06:38.962Z,14.00
2023-03-13T17:08:15.452Z,14.00
2023-03-13T17:09:48.815Z,14.00
2023-03-13T17:11:24.069Z,14.00
2023-03-13T17:12:58.129Z,14.00
2023-03-13T17:14:31.484Z,14.00
2023-03-13T17:16:04.867Z,13.90
2023-03-13T17:17:39.035Z,13.90
2023-03-13T17:19:15.351Z,13.90
2023-03-13T17:20:51.048Z,13.80
2023-03-13T17:22:24.285Z,13.80
2023-03-13T17:23:58.221Z,13.80
2023-03-13T17:25:31.816Z,13.80
2023-03-13T17:27:11.164Z,13.80
2023-03-13T17:28:45.220Z,13.70
2023-03-13T17:30:26.223Z,13.70
2023-03-13T17:31:59.331Z,13.60
2023-03-13T17:33:32.498Z,13.60
2023-03-13T17:35:06.965Z,13.60
2023-03-13T17:36:41.007Z,13.60
2023-03-13T17:38:14.101Z,13.60
2023-03-13T17:39:49.194Z,13.50
2023-03-13T17:41:25.503Z,13.40
2023-03-13T17:43:00.059Z,13.40
2023-03-13T17:44:33.235Z,13.40
2023-03-13T17:46:16.804Z,13.30
2023-03-13T17:47:50.243Z,13.30
2023-03-13T17:49:23.652Z,13.20
2023-03-13T17:50:56.723Z,13.20
2023-03-13T17:52:30.093Z,13.10
2023-03-13T17:54:03.881Z,13.10
2023-03-13T17:55:37.102Z,13.10
2023-03-13T17:57:16.471Z,13.00
2023-03-13T17:58:54.532Z,13.00
2023-03-13T18:00:31.614Z,12.90
2023-03-13T18:02:04.807Z,12.90
2023-03-13T18:03:37.885Z,12.80
2023-03-13T18:05:11.262Z,12.80
2023-03-13T18:06:47.305Z,12.80
2023-03-13T18:08:20.843Z,12.70
2023-03-13T18:09:54.084Z,12.70
2023-03-13T18:11:28.090Z,12.60
2023-03-13T18:13:01.214Z,12.60
2023-03-13T18:14:37.702Z,12.50
2023-03-13T18:16:20.496Z,12.50
2023-03-13T18:17:54.610Z,12.50
2023-03-13T18:19:28.592Z,12.40
2023-03-13T18:21:01.781Z,12.40
2023-03-13T18:22:34.868Z,12.30
2023-03-13T18:24:08.257Z,12.30
2023-03-13T18:25:41.549Z,12.20
2023-03-13T18:27:18.067Z,12.20
2023-03-13T18:28:52.425Z,12.20
2023-03-13T18:30:28.491Z,12.10
2023-03-13T18:32:01.742Z,12.10
2023-03-13T18:33:34.904Z,12.10
2023-03-13T18:35:09.233Z,12.00
2023-03-13T18:36:43.225Z,12.00
2023-03-13T18:38:18.747Z,11.90
2023-03-13T18:39:52.213Z,11.90
2023-03-13T18:41:26.611Z,11.90
2023-03-13T18:43:00.249Z,11.90
2023-03-13T18:44:33.614Z,11.80
2023-03-13T18:46:15.586Z,11.90
2023-03-13T18:47:49.360Z,11.80
2023-03-13T18:49:24.694Z,11.70
2023-03-13T18:50:57.987Z,11.70
2023-03-13T18:52:31.760Z,11.70
2023-03-13T18:54:05.383Z,11.60
2023-03-13T18:55:38.646Z,11.60
2023-03-13T18:57:15.155Z,11.60
2023-03-13T18:58:50.678Z,11.50
2023-03-13T19:00:27.235Z,11.50
2023-03-13T19:02:01.930Z,11.50
2023-03-13T19:03:35.316Z,11.40
2023-03-13T19:05:09.902Z,11.40
2023-03-13T19:06:43.625Z,11.30
2023-03-13T19:08:16.872Z,11.30
2023-03-13T19:09:50.420Z,11.30
2023-03-13T19:11:27.079Z,11.20
2023-03-13T19:13:00.581Z,11.20
2023-03-13T19:14:35.070Z,11.20
2023-03-13T19:16:19.203Z,11.20
2023-03-13T19:17:56.338Z,11.20
2023-03-13T19:19:31.822Z,11.20
2023-03-13T19:21:10.111Z,11.10
2023-03-13T19:22:43.559Z,11.10
2023-03-13T19:24:17.433Z,11.10
2023-03-13T19:25:52.615Z,11.10
2023-03-13T19:27:26.241Z,11.10
2023-03-13T19:29:00.565Z,11.10
2023-03-13T19:30:33.743Z,11.00
2023-03-13T19:32:08.186Z,11.00
2023-03-13T19:33:42.828Z,11.00
2023-03-13T19:35:18.701Z,11.00
2023-03-13T19:36:53.312Z,11.00
2023-03-13T19:38:26.408Z,11.00
2023-03-13T19:39:59.591Z,11.00
2023-03-13T19:41:33.103Z,10.90
2023-03-13T19:44:35.862Z,10.90
2023-03-13T19:46:31.162Z,10.90
2023-03-13T19:48:04.444Z,10.90
2023-03-13T19:49:37.721Z,10.90
2023-03-13T19:51:11.140Z,10.80
2023-03-13T19:52:45.405Z,10.90
2023-03-13T19:54:18.708Z,10.80
2023-03-13T19:55:51.852Z,10.80
2023-03-13T19:57:25.092Z,10.80
2023-03-13T19:59:00.785Z,10.80
2023-03-13T20:00:37.381Z,10.80
2023-03-13T20:02:12.450Z,10.70
2023-03-13T20:03:47.079Z,10.70
2023-03-13T20:05:20.492Z,10.70
2023-03-13T20:06:54.096Z,10.60
2023-03-13T20:08:27.239Z,10.60
2023-03-13T20:10:00.673Z,10.60
2023-03-13T20:11:34.590Z,10.60
2023-03-13T20:13:07.701Z,10.60
2023-03-13T20:14:40.807Z,10.50
2023-03-13T20:16:15.914Z,10.50
2023-03-13T20:17:48.984Z,10.40
2023-03-13T20:19:23.884Z,10.40
2023-03-13T20:20:57.147Z,10.40
2023-03-13T20:22:30.437Z,10.30
2023-03-13T20:24:04.190Z,10.30
2023-03-13T20:25:37.437Z,10.30
2023-03-13T20:27:10.507Z,10.20
2023-03-13T20:28:46.585Z,10.20
2023-03-13T20:30:19.999Z,10.20
2023-03-13T20:31:54.515Z,10.10
2023-03-13T20:33:27.744Z,10.10
2023-03-13T20:35:00.959Z,10.00
2023-03-13T20:36:34.190Z,10.00
2023-03-13T20:38:08.059Z,10.00
2023-03-13T20:39:41.781Z,9.90
2023-03-13T20:41:16.157Z,9.90
2023-03-13T20:42:49.577Z,9.80
2023-03-13T20:44:22.920Z,9.80
2023-03-13T20:45:56.473Z,9.80
2023-03-13T20:47:30.973Z,9.70
2023-03-13T20:49:04.191Z,9.70
2023-03-13T20:50:37.637Z,9.60
2023-03-13T20:52:10.781Z,9.60
2023-03-13T20:53:44.639Z,9.50
2023-03-13T20:55:18.654Z,9.50
2023-03-13T20:56:51.873Z,9.50
2023-03-13T20:58:25.020Z,9.40
2023-03-13T20:59:58.126Z,9.50
2023-03-13T21:01:32.398Z,9.40
2023-03-13T21:03:06.994Z,9.40
2023-03-13T21:04:40.224Z,9.30
2023-03-13T21:06:16.240Z,9.30
2023-03-13T21:07:49.416Z,9.30
2023-03-13T21:09:22.480Z,9.20
2023-03-13T21:10:55.569Z,9.20
2023-03-13T21:12:29.056Z,9.20
2023-03-13T21:14:02.227Z,9.10
2023-03-13T21:15:35.625Z,9.10
2023-03-13T21:17:10.636Z,9.10
2023-03-13T21:18:45.262Z,9.00
2023-03-13T21:20:18.481Z,9.00
2023-03-13T21:21:52.084Z,9.00
2023-03-13T21:23:25.176Z,8.90